Time;durP1;ratioP1;P1;durP2;ratioP2;P2;SDS_P1;SDS_P2;PMS_P1;PMS_P2;Temp;Humidity;BMP_temperature;BMP_pressure;BME280_temperature;BME280_humidity;BME280_pressure;Samples;Min_cycle;Max_cycle;Signal;HPM_P1;HPM_P2
2022/01/12 00:00:50;;;;;;;;;;;0.70;99.90;;;;;;5086822;28;20139;-72
2022/01/12 00:03:17;;;;;;;;;;;0.70;99.90;;;;;;5088147;28;20303;-72
2022/01/12 00:05:44;;;;;;;;;;;0.80;99.90;;;;;;5106394;28;19926;-72
2022/01/12 00:08:10;;;;;;;;;;;0.70;99.90;;;;;;5106877;28;19928;-72
2022/01/12 00:10:39;;;;;;;;;;;0.70;99.90;;;;;;5107047;28;19920;-74
2022/01/12 00:13:05;;;;;;;;;;;0.60;99.90;;;;;;5105286;28;19958;-73
2022/01/12 00:15:33;;;;;;;;;;;0.70;99.90;;;;;;5106118;28;19924;-72
2022/01/12 00:18:00;;;;;;;;;;;0.70;99.90;;;;;;5098025;28;20111;-72
2022/01/12 00:20:26;;;;;;;;;;;0.70;99.90;;;;;;5086469;28;20115;-72
2022/01/12 00:22:53;;;;;;;;;;;0.70;99.90;;;;;;5086133;28;19927;-72
2022/01/12 00:25:27;;;;;;;;;;;0.70;99.90;;;;;;5095623;28;20123;-72
2022/01/12 00:33:24;;;;;;;;;;;0.70;99.90;;;;;;5106352;28;19927;-73
2022/01/12 00:35:51;;;;;;;;;;;0.60;99.90;;;;;;5105887;28;19942;-72
2022/01/12 00:38:18;;;;;;;;;;;0.60;99.90;;;;;;5095212;28;19925;-73
2022/01/12 00:40:47;;;;;;;;;;;0.50;99.90;;;;;;5085918;28;19920;-72
2022/01/12 00:43:14;;;;;;;;;;;0.60;99.90;;;;;;5086167;28;20165;-72
2022/01/12 00:45:42;;;;;;;;;;;0.60;99.90;;;;;;5085681;28;19927;-72
2022/01/12 00:48:09;;;;;;;;;;;0.50;99.90;;;;;;5095386;28;19979;-72
2022/01/12 00:50:36;;;;;;;;;;;0.50;99.90;;;;;;5106196;28;19926;-72
2022/01/12 00:53:03;;;;;;;;;;;0.50;99.90;;;;;;5106160;28;19920;-72
2022/01/12 00:55:30;;;;;;;;;;;0.50;99.90;;;;;;5105683;28;19928;-73
2022/01/12 00:57:58;;;;;;;;;;;0.60;99.90;;;;;;5105772;28;19942;-72
2022/01/12 01:00:25;;;;;;;;;;;0.60;99.90;;;;;;5105681;28;20115;-73
2022/01/12 01:02:54;;;;;;;;;;;0.60;99.90;;;;;;5105933;28;20092;-72
2022/01/12 01:05:21;;;;;;;;;;;0.50;99.90;;;;;;5105276;28;20100;-73
2022/01/12 01:07:48;;;;;;;;;;;0.50;99.90;;;;;;5116584;22;19967;-71
2022/01/12 01:10:21;;;;;;;;;;;0.50;99.90;;;;;;5105956;28;19920;-73
2022/01/12 01:12:48;;;;;;;;;;;0.50;99.90;;;;;;5105549;28;19995;-72
2022/01/12 01:15:18;;;;;;;;;;;0.50;99.90;;;;;;5105212;28;19920;-73
2022/01/12 01:25:59;;;;;;;;;;;0.50;99.90;;;;;;5084806;28;19991;-72
2022/01/12 01:28:25;;;;;;;;;;;0.50;99.90;;;;;;5084165;28;19966;-72
2022/01/12 01:30:52;;;;;;;;;;;0.40;99.90;;;;;;5089408;28;19920;-72
2022/01/12 01:33:20;;;;;;;;;;;0.40;99.90;;;;;;5090616;28;20287;-72
2022/01/12 01:35:54;;;;;;;;;;;0.40;99.90;;;;;;5083824;28;19927;-70
2022/01/12 01:38:21;;;;;;;;;;;0.50;99.90;;;;;;5084086;28;19947;-72
2022/01/12 01:40:47;;;;;;;;;;;0.40;99.90;;;;;;5085118;28;19921;-73
2022/01/12 01:43:24;;;;;;;;;;;0.30;99.90;;;;;;5085043;28;19926;-73
2022/01/12 01:54:07;;;;;;;;;;;0.20;99.90;;;;;;5084211;28;19962;-72
2022/01/12 01:56:34;;;;;;;;;;;0.20;99.90;;;;;;5084075;28;19928;-72
2022/01/12 01:59:00;;;;;;;;;;;0.20;99.90;;;;;;5083448;28;19928;-72
2022/01/12 02:01:27;;;;;;;;;;;0.10;99.90;;;;;;5084674;28;19927;-72
2022/01/12 02:03:57;;;;;;;;;;;0.10;99.90;;;;;;5083983;28;19920;-72
2022/01/12 02:06:25;;;;;;;;;;;0.10;99.90;;;;;;5083846;28;20199;-72
2022/01/12 02:08:51;;;;;;;;;;;0.10;99.90;;;;;;5083433;28;19920;-72
2022/01/12 02:11:18;;;;;;;;;;;0.10;99.90;;;;;;5084192;28;19920;-72
2022/01/12 02:13:45;;;;;;;;;;;0.10;99.90;;;;;;5084167;28;19920;-72
2022/01/12 02:16:11;;;;;;;;;;;0.10;99.90;;;;;;5084109;28;19924;-72
2022/01/12 02:19:04;;;;;;;;;;;0.10;99.90;;;;;;5083020;28;19963;-72
2022/01/12 02:35:32;;;;;;;;;;;0.00;99.90;;;;;;5008177;28;20189;-72
2022/01/12 02:40:47;;;;;;;;;;;-0.10;99.90;;;;;;5084004;28;19927;-73
2022/01/12 02:43:17;;;;;;;;;;;-0.10;99.90;;;;;;5083864;28;20143;-72
2022/01/12 02:51:16;;;;;;;;;;;-0.10;99.90;;;;;;5083944;28;19973;-72
2022/01/12 02:53:44;;;;;;;;;;;-0.10;99.90;;;;;;5083555;28;19978;-72
2022/01/12 02:56:11;;;;;;;;;;;-0.10;99.90;;;;;;5083609;28;19958;-72
2022/01/12 02:58:38;;;;;;;;;;;-0.10;99.90;;;;;;5083280;28;19926;-72
2022/01/12 03:01:36;;;;;;;;;;;-0.20;99.90;;;;;;5083182;28;20203;-73
2022/01/12 03:04:05;;;;;;;;;;;-0.20;99.90;;;;;;5082258;28;19921;-71
2022/01/12 03:06:35;;;;;;;;;;;-0.20;99.90;;;;;;5083381;28;19920;-72
2022/01/12 03:09:04;;;;;;;;;;;-0.20;99.90;;;;;;5083140;28;20166;-72
2022/01/12 03:11:31;;;;;;;;;;;-0.20;99.90;;;;;;5083780;28;19920;-72
2022/01/12 03:13:58;;;;;;;;;;;-0.20;99.90;;;;;;5083466;28;20152;-72
2022/01/12 03:16:26;;;;;;;;;;;-0.10;99.90;;;;;;5083476;28;19943;-72
2022/01/12 03:18:54;;;;;;;;;;;-0.20;99.90;;;;;;5082552;28;20123;-72
2022/01/12 03:21:21;;;;;;;;;;;-0.20;99.90;;;;;;5083401;28;20226;-72
2022/01/12 03:23:48;;;;;;;;;;;-0.20;99.90;;;;;;5083559;28;20417;-72
2022/01/12 03:26:16;;;;;;;;;;;-0.20;99.90;;;;;;5070527;28;19921;-72
2022/01/12 03:28:43;;;;;;;;;;;-0.20;99.90;;;;;;5074699;28;20223;-72
2022/01/12 03:31:17;;;;;;;;;;;-0.20;99.90;;;;;;5083668;28;20204;-72
2022/01/12 03:33:57;;;;;;;;;;;-0.30;99.90;;;;;;5083327;28;19960;-72
2022/01/12 03:36:28;;;;;;;;;;;-0.30;99.90;;;;;;5083443;28;20160;-72
2022/01/12 03:38:56;;;;;;;;;;;-0.30;99.90;;;;;;5082659;28;19943;-72
2022/01/12 03:41:25;;;;;;;;;;;-0.30;99.90;;;;;;5083637;28;19927;-72
2022/01/12 03:43:51;;;;;;;;;;;-0.30;99.90;;;;;;5082888;28;20302;-73
2022/01/12 03:46:19;;;;;;;;;;;-0.30;99.90;;;;;;5083576;28;19924;-72
2022/01/12 03:48:46;;;;;;;;;;;-0.30;99.90;;;;;;5086357;28;19920;-72
2022/01/12 03:51:12;;;;;;;;;;;-0.30;99.90;;;;;;5086445;28;20123;-72
2022/01/12 03:53:39;;;;;;;;;;;-0.30;99.90;;;;;;5086105;28;19943;-72
2022/01/12 03:56:05;;;;;;;;;;;-0.20;99.90;;;;;;5085718;28;19943;-72
2022/01/12 03:58:33;;;;;;;;;;;-0.30;99.90;;;;;;5085964;28;20231;-72
2022/01/12 04:01:00;;;;;;;;;;;-0.30;99.90;;;;;;5086982;28;19921;-72
2022/01/12 04:03:28;;;;;;;;;;;-0.30;99.90;;;;;;5086718;28;19927;-72
2022/01/12 04:08:39;;;;;;;;;;;-0.30;99.90;;;;;;5085754;28;19923;-72
2022/01/12 04:11:05;;;;;;;;;;;-0.40;99.90;;;;;;5086742;28;19920;-72
2022/01/12 04:13:32;;;;;;;;;;;-0.40;99.90;;;;;;5086173;28;19927;-72
2022/01/12 04:16:01;;;;;;;;;;;-0.40;99.90;;;;;;5086462;28;19920;-72
2022/01/12 04:18:27;;;;;;;;;;;-0.40;99.90;;;;;;5085774;28;20115;-73
2022/01/12 04:20:54;;;;;;;;;;;-0.40;99.90;;;;;;5086618;28;19927;-72
2022/01/12 04:23:22;;;;;;;;;;;-0.40;99.90;;;;;;5086654;28;20000;-72
2022/01/12 04:25:49;;;;;;;;;;;-0.50;99.90;;;;;;5085928;28;19984;-72
2022/01/12 04:28:17;;;;;;;;;;;-0.40;99.90;;;;;;5085522;28;19924;-72
2022/01/12 04:30:44;;;;;;;;;;;-0.40;99.90;;;;;;5086324;28;19920;-72
2022/01/12 04:33:12;;;;;;;;;;;-0.40;99.90;;;;;;5086358;28;20108;-72
2022/01/12 04:35:46;;;;;;;;;;;-0.40;99.90;;;;;;5085977;28;20010;-72
2022/01/12 04:38:12;;;;;;;;;;;-0.50;99.90;;;;;;5085317;28;19937;-72
2022/01/12 04:40:39;;;;;;;;;;;-0.50;99.90;;;;;;5086298;28;19927;-72
2022/01/12 04:43:07;;;;;;;;;;;-0.50;99.90;;;;;;5085832;28;19921;-71
2022/01/12 04:45:40;;;;;;;;;;;-0.40;99.90;;;;;;5085670;28;20123;-72
2022/01/12 04:48:32;;;;;;;;;;;-0.50;99.90;;;;;;5084719;28;19956;-72
2022/01/12 04:51:00;;;;;;;;;;;-0.50;99.90;;;;;;5085747;28;19920;-72
2022/01/12 04:53:27;;;;;;;;;;;-0.50;99.90;;;;;;5085779;28;20211;-72
2022/01/12 04:55:54;;;;;;;;;;;-0.50;99.90;;;;;;5085571;28;19920;-72
2022/01/12 04:58:21;;;;;;;;;;;-0.50;99.90;;;;;;5083974;28;19920;-72
2022/01/12 05:00:48;;;;;;;;;;;-0.50;99.90;;;;;;5085561;28;20234;-72
2022/01/12 05:09:03;;;;;;;;;;;-0.50;99.90;;;;;;5084514;28;19950;-72
2022/01/12 05:14:13;;;;;;;;;;;-0.50;99.90;;;;;;5065305;28;20112;-72
2022/01/12 05:16:40;;;;;;;;;;;-0.60;99.90;;;;;;5065382;28;19921;-72
2022/01/12 05:19:06;;;;;;;;;;;-0.60;99.90;;;;;;5064486;28;19928;-73
2022/01/12 05:21:34;;;;;;;;;;;-0.60;99.90;;;;;;5064566;28;19928;-73
2022/01/12 05:24:06;;;;;;;;;;;-0.60;99.90;;;;;;5084409;28;19920;-72
2022/01/12 05:26:32;;;;;;;;;;;-0.60;99.90;;;;;;5084939;28;19925;-72
2022/01/12 05:28:59;;;;;;;;;;;-0.60;99.90;;;;;;5083443;28;19920;-72
2022/01/12 05:31:26;;;;;;;;;;;-0.70;99.90;;;;;;5083682;28;19921;-72
2022/01/12 05:33:53;;;;;;;;;;;-0.60;99.90;;;;;;5085002;28;20084;-73
2022/01/12 05:36:20;;;;;;;;;;;-0.60;99.90;;;;;;5084947;28;20167;-72
2022/01/12 05:38:48;;;;;;;;;;;-0.70;99.90;;;;;;5084479;28;19928;-72
2022/01/12 05:41:14;;;;;;;;;;;-0.70;99.90;;;;;;5085091;28;19924;-72
2022/01/12 05:43:42;;;;;;;;;;;-0.70;99.90;;;;;;5084506;28;20204;-72
2022/01/12 05:46:11;;;;;;;;;;;-0.70;99.90;;;;;;5084646;28;19952;-72
2022/01/12 05:51:23;;;;;;;;;;;-0.60;99.90;;;;;;5084363;28;19923;-72
2022/01/12 05:53:51;;;;;;;;;;;-0.60;99.90;;;;;;5084357;28;20239;-72
2022/01/12 05:56:18;;;;;;;;;;;-0.60;99.90;;;;;;5085210;28;19920;-73
2022/01/12 05:58:44;;;;;;;;;;;-0.70;99.90;;;;;;5083622;28;19927;-72
2022/01/12 06:01:11;;;;;;;;;;;-0.70;99.90;;;;;;5084551;28;20103;-72
2022/01/12 06:03:38;;;;;;;;;;;-0.80;99.90;;;;;;5084035;28;20216;-72
2022/01/12 06:06:05;;;;;;;;;;;-0.80;99.90;;;;;;5084291;28;19920;-72
2022/01/12 06:08:31;;;;;;;;;;;-0.80;99.90;;;;;;5083221;28;19920;-73
2022/01/12 06:10:59;;;;;;;;;;;-0.80;99.90;;;;;;5084203;28;19927;-72
2022/01/12 06:13:26;;;;;;;;;;;-0.70;99.90;;;;;;5084861;28;19920;-72
2022/01/12 06:15:52;;;;;;;;;;;-0.80;99.90;;;;;;5084008;28;19929;-72
2022/01/12 06:18:19;;;;;;;;;;;-0.80;99.90;;;;;;5083159;28;19920;-71
2022/01/12 06:20:45;;;;;;;;;;;-0.80;99.90;;;;;;5084463;28;20111;-71
2022/01/12 06:23:12;;;;;;;;;;;-0.80;99.90;;;;;;5084266;28;19953;-71
2022/01/12 06:25:39;;;;;;;;;;;-0.80;99.90;;;;;;5083683;28;19926;-71
2022/01/12 06:28:23;;;;;;;;;;;-0.80;99.90;;;;;;5083386;28;20160;-71
2022/01/12 06:33:39;;;;;;;;;;;-0.90;99.90;;;;;;5083833;28;19955;-71
2022/01/12 06:36:05;;;;;;;;;;;-0.90;99.90;;;;;;5083385;28;19920;-71
2022/01/12 06:38:32;;;;;;;;;;;-0.90;99.90;;;;;;5083901;28;19920;-72
2022/01/12 06:40:59;;;;;;;;;;;-0.90;99.90;;;;;;5083986;28;19921;-74
2022/01/12 06:43:28;;;;;;;;;;;-0.90;99.90;;;;;;5083655;28;19924;-73
2022/01/12 06:45:55;;;;;;;;;;;-0.90;99.90;;;;;;5083821;28;19920;-73
2022/01/12 06:48:21;;;;;;;;;;;-1.00;99.90;;;;;;5082782;28;19925;-73
2022/01/12 06:50:48;;;;;;;;;;;-1.00;99.90;;;;;;5083915;28;19921;-73
2022/01/12 06:53:15;;;;;;;;;;;-1.10;99.90;;;;;;5084060;28;19920;-73
2022/01/12 06:55:41;;;;;;;;;;;-1.10;99.90;;;;;;5083490;28;19920;-73
2022/01/12 06:58:08;;;;;;;;;;;-1.10;99.90;;;;;;5083342;28;19926;-73
2022/01/12 07:00:36;;;;;;;;;;;-1.10;99.90;;;;;;5082943;28;20111;-72
2022/01/12 07:03:02;;;;;;;;;;;-1.10;99.90;;;;;;5083531;28;20230;-73
2022/01/12 07:05:29;;;;;;;;;;;-1.10;99.90;;;;;;5083624;28;19920;-73
2022/01/12 07:07:56;;;;;;;;;;;-1.10;99.90;;;;;;5081303;28;19927;-72
2022/01/12 07:10:22;;;;;;;;;;;-1.10;99.90;;;;;;5083035;28;19921;-71
2022/01/12 07:12:49;;;;;;;;;;;-1.00;99.90;;;;;;5081526;28;19926;-72
2022/01/12 07:15:15;;;;;;;;;;;-1.10;99.90;;;;;;5083034;28;19920;-71
2022/01/12 07:17:43;;;;;;;;;;;-1.00;99.90;;;;;;5083218;28;19927;-71
2022/01/12 07:20:10;;;;;;;;;;;-1.10;99.90;;;;;;5082212;28;19928;-70
2022/01/12 07:22:37;;;;;;;;;;;-1.10;99.90;;;;;;5084814;28;19927;-71
2022/01/12 07:25:04;;;;;;;;;;;-1.00;99.90;;;;;;5087442;28;19921;-71
2022/01/12 07:27:30;;;;;;;;;;;-1.00;99.90;;;;;;5086542;28;19927;-72
2022/01/12 07:29:57;;;;;;;;;;;-1.00;99.90;;;;;;5087704;28;19920;-71
2022/01/12 07:32:24;;;;;;;;;;;-1.00;99.90;;;;;;5087560;28;19920;-71
2022/01/12 07:34:52;;;;;;;;;;;-0.90;99.90;;;;;;5087249;28;19921;-71
2022/01/12 07:37:19;;;;;;;;;;;-0.90;99.90;;;;;;5087074;28;19932;-72
2022/01/12 07:39:45;;;;;;;;;;;-0.90;99.90;;;;;;5086177;28;19921;-72
2022/01/12 07:42:12;;;;;;;;;;;-0.90;99.90;;;;;;5087109;28;19920;-71
2022/01/12 07:44:39;;;;;;;;;;;-0.90;99.90;;;;;;5087030;28;19920;-71
2022/01/12 07:47:06;;;;;;;;;;;-0.90;99.90;;;;;;5087010;28;19920;-72
2022/01/12 07:49:34;;;;;;;;;;;-0.80;99.90;;;;;;5086313;28;19927;-71
2022/01/12 07:52:02;;;;;;;;;;;-0.80;99.90;;;;;;5086902;28;19920;-71
2022/01/12 07:54:28;;;;;;;;;;;-0.80;99.90;;;;;;5086862;28;19942;-71
2022/01/12 07:56:55;;;;;;;;;;;-0.70;99.90;;;;;;5086630;28;19920;-72
2022/01/12 07:59:21;;;;;;;;;;;-0.70;99.90;;;;;;5085526;28;19921;-71
2022/01/12 08:01:48;;;;;;;;;;;-0.70;99.90;;;;;;5086952;28;19925;-71
2022/01/12 08:04:14;;;;;;;;;;;-0.70;99.90;;;;;;5066872;28;19928;-71
2022/01/12 08:06:41;;;;;;;;;;;-0.70;99.90;;;;;;5066471;28;19921;-71
2022/01/12 08:09:09;;;;;;;;;;;-0.60;99.90;;;;;;5081683;28;20196;-71
2022/01/12 08:11:35;;;;;;;;;;;-0.60;99.90;;;;;;5088782;28;19927;-71
2022/01/12 08:14:02;;;;;;;;;;;-0.50;99.90;;;;;;5086528;28;19927;-70
2022/01/12 08:16:29;;;;;;;;;;;-0.50;99.90;;;;;;5084212;28;19987;-72
2022/01/12 08:18:56;;;;;;;;;;;-0.50;99.90;;;;;;5081422;28;19928;-71
2022/01/12 08:21:24;;;;;;;;;;;-0.50;99.90;;;;;;5086511;28;19926;-72
2022/01/12 08:23:50;;;;;;;;;;;-0.50;99.90;;;;;;5075294;28;20224;-72
2022/01/12 08:26:18;;;;;;;;;;;-0.50;99.90;;;;;;5066201;28;19927;-71
2022/01/12 08:28:45;;;;;;;;;;;-0.50;99.90;;;;;;5079596;28;19920;-71
2022/01/12 08:31:11;;;;;;;;;;;-0.40;99.90;;;;;;5069895;28;19933;-71
2022/01/12 08:33:38;;;;;;;;;;;-0.40;99.90;;;;;;5069998;28;19921;-72
2022/01/12 08:36:05;;;;;;;;;;;-0.40;99.90;;;;;;5065879;28;20238;-72
2022/01/12 08:38:31;;;;;;;;;;;-0.40;99.90;;;;;;5083534;28;19973;-72
2022/01/12 08:40:58;;;;;;;;;;;-0.40;99.90;;;;;;5081472;28;19936;-73
2022/01/12 08:43:26;;;;;;;;;;;-0.40;99.90;;;;;;5085145;28;19928;-71
2022/01/12 08:45:54;;;;;;;;;;;-0.40;99.90;;;;;;5085291;28;19920;-71
2022/01/12 08:48:21;;;;;;;;;;;-0.40;99.90;;;;;;5082787;28;19951;-71
2022/01/12 08:50:47;;;;;;;;;;;-0.30;99.90;;;;;;5085778;28;19921;-71
2022/01/12 08:53:14;;;;;;;;;;;-0.30;99.90;;;;;;5085894;28;19920;-71
2022/01/12 08:55:41;;;;;;;;;;;-0.20;99.90;;;;;;5084786;28;19920;-71
2022/01/12 08:58:07;;;;;;;;;;;-0.20;99.90;;;;;;5081034;28;19921;-71
2022/01/12 09:00:35;;;;;;;;;;;-0.20;99.90;;;;;;5065781;28;19921;-71
2022/01/12 09:03:02;;;;;;;;;;;-0.20;99.90;;;;;;5065451;28;19921;-71
2022/01/12 09:05:29;;;;;;;;;;;-0.20;99.90;;;;;;5064601;28;20230;-71
2022/01/12 09:07:56;;;;;;;;;;;-0.20;99.90;;;;;;5070806;28;19927;-70
2022/01/12 09:10:23;;;;;;;;;;;-0.20;99.90;;;;;;5078914;28;19943;-72
2022/01/12 09:12:49;;;;;;;;;;;-0.20;99.90;;;;;;5084245;28;19920;-71
2022/01/12 09:15:16;;;;;;;;;;;-0.20;99.90;;;;;;5077822;28;20123;-71
2022/01/12 09:17:46;;;;;;;;;;;-0.10;99.90;;;;;;5075199;28;20295;-71
2022/01/12 09:20:13;;;;;;;;;;;-0.10;99.90;;;;;;5074151;28;19959;-72
2022/01/12 09:22:40;;;;;;;;;;;-0.10;99.90;;;;;;5070095;28;20207;-71
2022/01/12 09:25:07;;;;;;;;;;;-0.20;99.90;;;;;;5074027;28;19943;-71
2022/01/12 09:27:34;;;;;;;;;;;-0.20;99.90;;;;;;5074719;28;20245;-71
2022/01/12 09:30:00;;;;;;;;;;;-0.10;99.90;;;;;;5082074;28;19920;-71
2022/01/12 09:32:27;;;;;;;;;;;-0.20;99.90;;;;;;5082774;28;19920;-71
2022/01/12 09:34:55;;;;;;;;;;;-0.20;99.90;;;;;;5064917;28;19928;-71
2022/01/12 09:37:21;;;;;;;;;;;-0.20;99.90;;;;;;5064264;28;19925;-72
2022/01/12 09:39:48;;;;;;;;;;;-0.20;99.90;;;;;;5068797;28;19921;-71
2022/01/12 09:42:16;;;;;;;;;;;-0.20;99.90;;;;;;5064699;28;20333;-71
2022/01/12 09:44:46;;;;;;;;;;;-0.20;99.90;;;;;;5064423;28;19921;-71
2022/01/12 09:47:12;;;;;;;;;;;-0.30;99.90;;;;;;5064446;28;19920;-72
2022/01/12 09:49:39;;;;;;;;;;;-0.30;99.90;;;;;;5064226;28;19956;-72
2022/01/12 09:52:07;;;;;;;;;;;-0.30;99.90;;;;;;5063979;28;19929;-70
2022/01/12 09:54:34;;;;;;;;;;;-0.30;99.90;;;;;;5083463;28;19921;-71
2022/01/12 09:57:01;;;;;;;;;;;-0.30;99.90;;;;;;5084120;28;19943;-71
2022/01/12 09:59:27;;;;;;;;;;;-0.20;99.90;;;;;;5074281;28;19969;-72
2022/01/12 10:01:55;;;;;;;;;;;-0.20;99.90;;;;;;5084372;28;19999;-71
2022/01/12 10:04:23;;;;;;;;;;;-0.20;99.90;;;;;;5084254;28;19924;-71
2022/01/12 10:06:52;;;;;;;;;;;-0.20;99.90;;;;;;5084264;28;20120;-71
2022/01/12 10:09:23;;;;;;;;;;;-0.10;99.90;;;;;;5084285;28;19928;-71
2022/01/12 10:11:50;;;;;;;;;;;-0.10;99.90;;;;;;5072694;28;19944;-71
2022/01/12 10:14:17;;;;;;;;;;;-0.10;99.90;;;;;;5063970;28;19962;-71
2022/01/12 10:16:50;;;;;;;;;;;-0.10;99.90;;;;;;5064405;28;19927;-71
2022/01/12 10:19:24;;;;;;;;;;;0.00;99.90;;;;;;5080878;28;19921;-71
2022/01/12 10:21:51;;;;;;;;;;;0.10;99.90;;;;;;5084342;28;19920;-71
2022/01/12 10:24:19;;;;;;;;;;;0.20;99.90;;;;;;5065242;28;19925;-71
2022/01/12 10:26:48;;;;;;;;;;;0.20;99.90;;;;;;5078630;28;19927;-71
2022/01/12 10:29:15;;;;;;;;;;;0.30;99.90;;;;;;5084129;28;19921;-72
2022/01/12 10:31:49;;;;;;;;;;;0.30;99.90;;;;;;5081310;28;19937;-71
2022/01/12 10:34:17;;;;;;;;;;;0.30;99.90;;;;;;5063539;28;20234;-71
2022/01/12 10:36:44;;;;;;;;;;;0.30;99.90;;;;;;5064117;28;19921;-71
2022/01/12 10:39:11;;;;;;;;;;;0.30;99.90;;;;;;5064074;28;19921;-71
2022/01/12 10:41:42;;;;;;;;;;;0.30;99.90;;;;;;5064052;28;19921;-71
2022/01/12 10:44:18;;;;;;;;;;;0.30;99.90;;;;;;5063586;28;20124;-71
2022/01/12 10:46:45;;;;;;;;;;;0.30;99.90;;;;;;5063633;28;19921;-71
2022/01/12 10:49:18;;;;;;;;;;;0.40;99.90;;;;;;5070938;28;19926;-71
2022/01/12 10:51:53;;;;;;;;;;;0.40;99.90;;;;;;5075431;28;19920;-70
2022/01/12 10:54:20;;;;;;;;;;;0.40;99.90;;;;;;5083689;28;19924;-72
2022/01/12 10:56:46;;;;;;;;;;;0.50;99.90;;;;;;5083156;28;19979;-71
2022/01/12 10:59:17;;;;;;;;;;;0.50;99.90;;;;;;5077992;28;19920;-71
2022/01/12 11:01:44;;;;;;;;;;;0.50;99.90;;;;;;5073005;28;19920;-71
2022/01/12 11:04:10;;;;;;;;;;;0.60;99.90;;;;;;5075957;28;19933;-71
2022/01/12 11:06:37;;;;;;;;;;;0.60;99.90;;;;;;5063412;28;19920;-71
2022/01/12 11:09:04;;;;;;;;;;;0.60;99.90;;;;;;5076386;28;19979;-71
2022/01/12 11:11:31;;;;;;;;;;;0.70;99.90;;;;;;5083896;28;19935;-71
2022/01/12 11:13:58;;;;;;;;;;;0.70;99.90;;;;;;5083575;28;19943;-72
2022/01/12 11:16:27;;;;;;;;;;;0.70;99.90;;;;;;5080878;28;19965;-72
2022/01/12 11:18:54;;;;;;;;;;;0.80;99.90;;;;;;5063673;28;19921;-71
2022/01/12 11:21:25;;;;;;;;;;;0.80;99.90;;;;;;5063648;28;19970;-71
2022/01/12 11:23:52;;;;;;;;;;;0.80;99.90;;;;;;5063187;28;20204;-72
2022/01/12 11:26:20;;;;;;;;;;;0.90;99.90;;;;;;5063507;28;19963;-71
2022/01/12 11:28:48;;;;;;;;;;;0.90;99.90;;;;;;5063525;28;19921;-71
2022/01/12 11:31:18;;;;;;;;;;;0.90;99.90;;;;;;5063556;28;19927;-71
2022/01/12 11:33:46;;;;;;;;;;;1.00;99.90;;;;;;5068383;28;19920;-71
2022/01/12 11:36:17;;;;;;;;;;;1.10;99.90;;;;;;5083299;28;19983;-71
2022/01/12 11:38:47;;;;;;;;;;;1.30;99.90;;;;;;5083270;28;20119;-72
2022/01/12 11:41:16;;;;;;;;;;;1.60;99.90;;;;;;5083560;28;20112;-71
2022/01/12 11:43:43;;;;;;;;;;;1.70;99.90;;;;;;5083309;28;19927;-72
2022/01/12 11:46:10;;;;;;;;;;;1.80;99.90;;;;;;5083379;28;19960;-71
2022/01/12 11:48:42;;;;;;;;;;;1.90;99.90;;;;;;5083156;28;20093;-71
2022/01/12 11:51:10;;;;;;;;;;;2.10;99.90;;;;;;5069911;28;19921;-71
2022/01/12 11:53:46;;;;;;;;;;;2.30;99.90;;;;;;5071052;28;19920;-71
2022/01/12 11:56:14;;;;;;;;;;;2.50;99.90;;;;;;5078439;28;19921;-71
2022/01/12 11:58:54;;;;;;;;;;;2.70;99.90;;;;;;5083352;28;19927;-71
2022/01/12 12:01:22;;;;;;;;;;;2.90;99.90;;;;;;5081216;28;19925;-71
2022/01/12 12:03:59;;;;;;;;;;;3.10;99.90;;;;;;5078034;28;20263;-71
2022/01/12 12:06:27;;;;;;;;;;;3.20;99.90;;;;;;5070342;28;20204;-71
2022/01/12 12:08:58;;;;;;;;;;;3.10;99.90;;;;;;5078369;28;19921;-72
2022/01/12 12:11:25;;;;;;;;;;;3.00;99.90;;;;;;5080133;28;19920;-71
2022/01/12 12:13:52;;;;;;;;;;;2.90;99.90;;;;;;5086150;28;20253;-70
2022/01/12 12:16:18;;;;;;;;;;;3.20;99.90;;;;;;5086467;28;20078;-71
2022/01/12 12:18:46;;;;;;;;;;;3.20;99.90;;;;;;5081118;28;19927;-71
2022/01/12 12:21:12;;;;;;;;;;;3.30;99.90;;;;;;5087075;28;19920;-72
2022/01/12 12:23:40;;;;;;;;;;;3.40;99.90;;;;;;5085974;28;20096;-72
2022/01/12 12:26:08;;;;;;;;;;;3.70;99.90;;;;;;5086309;28;19921;-72
2022/01/12 12:28:34;;;;;;;;;;;3.90;99.90;;;;;;5085569;28;19925;-72
2022/01/12 12:31:01;;;;;;;;;;;4.00;99.90;;;;;;5086515;28;19920;-72
2022/01/12 12:33:28;;;;;;;;;;;3.90;99.90;;;;;;5086362;28;19920;-71
2022/01/12 12:35:54;;;;;;;;;;;3.80;99.90;;;;;;5081417;28;19927;-72
2022/01/12 12:38:21;;;;;;;;;;;3.80;99.90;;;;;;5066290;28;20124;-72
2022/01/12 12:40:49;;;;;;;;;;;3.80;99.90;;;;;;5066301;28;19992;-72
2022/01/12 12:43:19;;;;;;;;;;;3.80;99.90;;;;;;5073388;28;19943;-72
2022/01/12 12:45:50;;;;;;;;;;;3.90;99.90;;;;;;5077723;28;19966;-73
2022/01/12 12:48:18;;;;;;;;;;;3.90;99.90;;;;;;5086165;28;19920;-72
2022/01/12 12:50:44;;;;;;;;;;;3.90;99.90;;;;;;5081361;28;19920;-72
2022/01/12 12:53:11;;;;;;;;;;;3.70;99.90;;;;;;5066136;28;19927;-72
2022/01/12 12:55:39;;;;;;;;;;;3.70;99.90;;;;;;5065503;28;19927;-72
2022/01/12 12:58:08;;;;;;;;;;;3.80;99.90;;;;;;5072458;28;19926;-72
2022/01/12 13:00:35;;;;;;;;;;;4.00;99.90;;;;;;5077399;28;19927;-72
2022/01/12 13:03:02;;;;;;;;;;;4.00;99.90;;;;;;5075233;28;19933;-72
2022/01/12 13:05:30;;;;;;;;;;;4.10;99.90;;;;;;5066010;28;19921;-72
2022/01/12 13:07:56;;;;;;;;;;;3.90;99.90;;;;;;5065492;28;20143;-74
2022/01/12 13:10:25;;;;;;;;;;;4.00;99.90;;;;;;5073163;28;19927;-73
2022/01/12 13:12:53;;;;;;;;;;;4.30;99.90;;;;;;5085520;28;19924;-74
2022/01/12 13:15:24;;;;;;;;;;;4.50;99.90;;;;;;5084767;28;20208;-74
2022/01/12 13:17:58;;;;;;;;;;;4.70;99.90;;;;;;5083967;28;20204;-73
2022/01/12 13:23:11;;;;;;;;;;;4.50;99.90;;;;;;5085159;28;19970;-74
2022/01/12 13:25:37;;;;;;;;;;;4.40;99.90;;;;;;5085113;28;20218;-74
2022/01/12 13:28:05;;;;;;;;;;;4.40;99.90;;;;;;5083296;28;19920;-73
2022/01/12 13:30:34;;;;;;;;;;;4.60;99.90;;;;;;5072464;28;20104;-74
2022/01/12 13:33:01;;;;;;;;;;;4.60;99.90;;;;;;5064971;28;19921;-74
2022/01/12 13:35:31;;;;;;;;;;;4.30;99.90;;;;;;5080044;28;21253;-73
2022/01/12 13:37:59;;;;;;;;;;;4.10;99.90;;;;;;5081954;28;19967;-73
2022/01/12 13:40:32;;;;;;;;;;;3.80;99.90;;;;;;5076429;28;19921;-74
2022/01/12 13:43:00;;;;;;;;;;;3.70;99.90;;;;;;5084961;28;19927;-74
2022/01/12 13:45:30;;;;;;;;;;;3.60;99.90;;;;;;5084672;28;19921;-73
2022/01/12 13:48:00;;;;;;;;;;;3.50;99.90;;;;;;5064486;28;20112;-74
2022/01/12 13:50:35;;;;;;;;;;;3.50;99.90;;;;;;5065273;28;19921;-74
2022/01/12 13:53:02;;;;;;;;;;;3.30;99.90;;;;;;5074000;28;19928;-74
2022/01/12 13:55:28;;;;;;;;;;;3.20;99.90;;;;;;5084150;28;19920;-74
2022/01/12 13:57:59;;;;;;;;;;;3.10;99.90;;;;;;5084118;28;20116;-73
2022/01/12 14:00:28;;;;;;;;;;;3.10;99.90;;;;;;5084072;28;19921;-73
2022/01/12 14:02:56;;;;;;;;;;;3.00;99.90;;;;;;5083336;28;19920;-73
2022/01/12 14:05:31;;;;;;;;;;;2.90;99.90;;;;;;5075533;28;20179;-73
2022/01/12 14:08:04;;;;;;;;;;;2.90;99.90;;;;;;5082835;28;20191;-72
2022/01/12 14:10:31;;;;;;;;;;;2.80;99.90;;;;;;5072062;28;19962;-73
2022/01/12 14:12:57;;;;;;;;;;;2.70;99.90;;;;;;5084024;28;19921;-72
2022/01/12 14:15:25;;;;;;;;;;;2.60;99.90;;;;;;5068240;28;19925;-73
2022/01/12 14:17:52;;;;;;;;;;;2.60;99.90;;;;;;5078062;28;19943;-73
2022/01/12 14:20:22;;;;;;;;;;;2.60;99.90;;;;;;5071671;28;20213;-72
2022/01/12 14:22:51;;;;;;;;;;;2.50;99.90;;;;;;5068326;28;19943;-73
2022/01/12 14:25:18;;;;;;;;;;;2.40;99.90;;;;;;5063930;28;20111;-73
2022/01/12 14:27:46;;;;;;;;;;;2.30;99.90;;;;;;5070598;28;19966;-73
2022/01/12 14:30:15;;;;;;;;;;;2.30;99.90;;;;;;5083635;28;19920;-73
2022/01/12 14:32:42;;;;;;;;;;;2.30;99.90;;;;;;5083068;28;19927;-73
2022/01/12 14:35:10;;;;;;;;;;;2.20;99.90;;;;;;5083853;28;19991;-74
2022/01/12 14:37:36;;;;;;;;;;;2.20;99.90;;;;;;5082795;28;19920;-73
2022/01/12 14:40:06;;;;;;;;;;;2.20;99.90;;;;;;5082723;28;20097;-73
2022/01/12 14:42:39;;;;;;;;;;;2.20;99.90;;;;;;5063120;28;19927;-74
2022/01/12 14:45:06;;;;;;;;;;;2.10;99.90;;;;;;5064285;28;19925;-74
2022/01/12 14:47:33;;;;;;;;;;;2.20;99.90;;;;;;5082899;28;19920;-73
2022/01/12 14:50:01;;;;;;;;;;;2.00;99.90;;;;;;5083151;28;19927;-73
2022/01/12 14:52:27;;;;;;;;;;;2.10;99.90;;;;;;5066976;28;19984;-72
2022/01/12 14:54:54;;;;;;;;;;;2.10;99.90;;;;;;5079331;28;20254;-72
2022/01/12 14:57:22;;;;;;;;;;;2.00;99.90;;;;;;5063643;28;20120;-72
2022/01/12 14:59:48;;;;;;;;;;;2.10;99.90;;;;;;5064733;28;19927;-73
2022/01/12 15:02:15;;;;;;;;;;;2.10;99.90;;;;;;5067918;28;19929;-73
2022/01/12 15:04:41;;;;;;;;;;;2.00;99.90;;;;;;5069870;28;19921;-73
2022/01/12 15:07:08;;;;;;;;;;;2.00;99.90;;;;;;5071326;28;20227;-73
2022/01/12 15:09:35;;;;;;;;;;;2.00;99.90;;;;;;5071345;28;19960;-72
2022/01/12 15:12:01;;;;;;;;;;;2.00;99.90;;;;;;5083451;28;19927;-73
2022/01/12 15:14:44;;;;;;;;;;;2.00;99.90;;;;;;5078581;28;19920;-72
2022/01/12 15:17:11;;;;;;;;;;;2.00;99.90;;;;;;5063297;28;19989;-74
2022/01/12 15:19:38;;;;;;;;;;;2.00;99.90;;;;;;5070618;28;19921;-74
2022/01/12 15:22:05;;;;;;;;;;;1.90;99.90;;;;;;5076420;28;19925;-74
2022/01/12 15:24:32;;;;;;;;;;;1.90;99.90;;;;;;5082117;28;19921;-73
2022/01/12 15:26:58;;;;;;;;;;;1.90;99.90;;;;;;5066806;28;19928;-73
2022/01/12 15:29:25;;;;;;;;;;;2.00;99.90;;;;;;5070825;28;19921;-73
2022/01/12 15:31:53;;;;;;;;;;;1.90;99.90;;;;;;5074108;28;19921;-74